Time;durP1;ratioP1;P1;durP2;ratioP2;P2;SDS_P1;SDS_P2;PMS_P1;PMS_P2;Temp;Humidity;BMP_temperature;BMP_pressure;BME280_temperature;BME280_humidity;BME280_pressure;Samples;Min_cycle;Max_cycle;Signal;HPM_P1;HPM_P2
2022/10/13 00:00:46;;;;;;;6.25;3.65;;;10.10;99.90;;;;;;4999903;28;20037;-72
2022/10/13 00:03:13;;;;;;;7.43;3.70;;;10.20;99.90;;;;;;5012801;28;20041;-72
2022/10/13 00:05:45;;;;;;;7.78;3.83;;;10.20;99.90;;;;;;5028205;28;20038;-72
2022/10/13 00:08:13;;;;;;;5.13;3.13;;;10.20;99.90;;;;;;5033816;28;20045;-73
2022/10/13 00:10:47;;;;;;;6.65;3.53;;;10.20;99.90;;;;;;5031234;28;20036;-72
2022/10/13 00:13:14;;;;;;;5.88;3.83;;;10.20;99.90;;;;;;5030043;28;20048;-72
2022/10/13 00:15:43;;;;;;;5.72;3.50;;;10.20;99.90;;;;;;5030417;28;20484;-72
2022/10/13 00:18:09;;;;;;;5.68;3.50;;;10.20;99.90;;;;;;5034448;28;20033;-73
2022/10/13 00:20:44;;;;;;;6.07;4.03;;;10.20;99.90;;;;;;5035488;28;20041;-72
2022/10/13 00:23:12;;;;;;;7.38;4.65;;;10.10;99.90;;;;;;5016257;28;20049;-73
2022/10/13 00:25:44;;;;;;;9.55;3.92;;;10.10;99.90;;;;;;5030483;28;20029;-73
2022/10/13 00:28:11;;;;;;;7.10;3.90;;;10.10;99.90;;;;;;5016216;28;20026;-72
2022/10/13 00:30:38;;;;;;;5.32;3.50;;;10.20;99.90;;;;;;5034850;28;20040;-73
2022/10/13 00:33:05;;;;;;;7.85;4.43;;;10.10;99.90;;;;;;5033129;28;20403;-73
2022/10/13 00:35:32;;;;;;;9.35;4.82;;;10.20;99.90;;;;;;5026992;28;20033;-72
2022/10/13 00:37:58;;;;;;;7.22;4.25;;;10.20;99.90;;;;;;5035634;28;20539;-74
2022/10/13 00:40:29;;;;;;;8.18;3.85;;;10.20;99.90;;;;;;5034313;28;20040;-73
2022/10/13 00:42:55;;;;;;;4.68;2.90;;;10.20;99.90;;;;;;5034340;28;20028;-73
2022/10/13 00:45:28;;;;;;;5.53;3.22;;;10.30;99.90;;;;;;5028190;28;20037;-72
2022/10/13 00:48:00;;;;;;;5.68;3.88;;;10.30;99.90;;;;;;5030206;28;20034;-72
2022/10/13 00:50:32;;;;;;;5.55;3.55;;;10.40;99.90;;;;;;5032599;28;20052;-73
2022/10/13 00:53:00;;;;;;;5.50;4.10;;;10.40;99.90;;;;;;5014171;28;20034;-72
2022/10/13 00:55:30;;;;;;;7.57;3.80;;;10.40;99.90;;;;;;5027072;28;20037;-73
2022/10/13 00:58:00;;;;;;;6.03;3.42;;;10.50;99.90;;;;;;5030715;28;20022;-73
2022/10/13 01:00:31;;;;;;;7.90;4.13;;;10.50;99.90;;;;;;5033461;28;20487;-72
2022/10/13 01:02:57;;;;;;;6.30;4.13;;;10.50;99.90;;;;;;5032420;28;20508;-72
2022/10/13 01:05:24;;;;;;;7.72;3.72;;;10.50;99.90;;;;;;5034360;28;20488;-72
2022/10/13 01:07:56;;;;;;;7.68;3.90;;;10.50;99.90;;;;;;5032938;28;20542;-72
2022/10/13 01:10:43;;;;;;;7.22;4.10;;;10.50;99.90;;;;;;5015303;28;20032;-73
2022/10/13 01:13:33;;;;;;;6.40;3.35;;;10.60;99.90;;;;;;5016920;28;20045;-73
2022/10/13 01:16:13;;;;;;;5.40;3.50;;;10.60;99.90;;;;;;5013859;28;20663;-73
2022/10/13 01:19:07;;;;;;;5.40;3.45;;;10.60;99.90;;;;;;5034063;28;20037;-73
2022/10/13 01:21:38;;;;;;;7.15;4.35;;;10.60;99.90;;;;;;5017152;28;20048;-73
2022/10/13 01:24:44;;;;;;;6.15;3.30;;;10.70;99.90;;;;;;5013974;28;20053;-73
2022/10/13 01:27:37;;;;;;;5.25;2.80;;;10.60;99.90;;;;;;4991656;28;20042;-73
2022/10/13 01:30:03;;;;;;;4.60;3.70;;;10.60;99.90;;;;;;5029518;28;20732;-73
2022/10/13 01:32:48;;;;;;;5.07;3.30;;;10.60;99.90;;;;;;5031536;28;20037;-73
2022/10/13 01:35:36;;;;;;;4.97;3.53;;;10.70;99.90;;;;;;5011958;28;20045;-74
2022/10/13 01:38:47;;;;;;;4.53;3.15;;;10.70;99.90;;;;;;5030010;28;20025;-73
2022/10/13 01:41:33;;;;;;;6.00;3.63;;;10.70;99.90;;;;;;5030175;28;20037;-73
2022/10/13 01:44:19;;;;;;;5.53;3.58;;;10.80;99.90;;;;;;5029239;28;20040;-74
2022/10/13 01:46:53;;;;;;;9.02;3.78;;;10.70;99.90;;;;;;5034272;28;20022;-73
2022/10/13 01:49:27;;;;;;;7.95;4.43;;;10.80;99.90;;;;;;5036606;28;20021;-73
2022/10/13 01:51:58;;;;;;;6.07;3.58;;;10.80;99.90;;;;;;5037730;28;20427;-74
2022/10/13 01:54:25;;;;;;;7.43;3.27;;;10.80;99.90;;;;;;5034757;28;20039;-73
2022/10/13 01:56:55;;;;;;;4.97;3.40;;;10.90;99.90;;;;;;5036989;28;20291;-73
2022/10/13 01:59:24;;;;;;;5.90;3.45;;;10.80;99.90;;;;;;5039005;28;20039;-74
2022/10/13 02:02:14;;;;;;;4.50;2.90;;;10.90;99.90;;;;;;5020326;28;20060;-73
2022/10/13 02:05:06;;;;;;;4.93;3.53;;;10.90;99.90;;;;;;5030193;28;20033;-73
2022/10/13 02:07:44;;;;;;;5.18;3.22;;;10.90;99.90;;;;;;5035196;28;20029;-73
2022/10/13 02:10:21;;;;;;;5.15;3.33;;;10.90;99.90;;;;;;5035966;28;20033;-73
2022/10/13 02:12:58;;;;;;;5.28;3.65;;;11.00;99.90;;;;;;5036822;28;20038;-73
2022/10/13 02:15:29;;;;;;;6.22;3.47;;;11.00;99.90;;;;;;5034057;28;20036;-74
2022/10/13 02:18:01;;;;;;;6.50;3.63;;;11.00;99.90;;;;;;5037517;28;20045;-73
2022/10/13 02:20:29;;;;;;;5.18;3.45;;;11.00;99.90;;;;;;5036232;28;20033;-73
2022/10/13 02:23:01;;;;;;;6.35;3.83;;;11.00;99.90;;;;;;5040947;28;20032;-73
2022/10/13 02:25:29;;;;;;;6.05;3.78;;;11.10;99.90;;;;;;5033349;28;20472;-73
2022/10/13 02:28:00;;;;;;;5.78;3.95;;;11.00;99.90;;;;;;5034266;28;20379;-74
2022/10/13 02:30:32;;;;;;;6.25;3.92;;;11.10;99.90;;;;;;5018095;28;20530;-73
2022/10/13 02:33:00;;;;;;;5.25;3.58;;;11.10;99.90;;;;;;5017848;28;20041;-73
2022/10/13 02:35:26;;;;;;;6.75;4.10;;;11.10;99.90;;;;;;5031280;28;20026;-73
2022/10/13 02:37:52;;;;;;;5.22;3.22;;;11.10;99.90;;;;;;5036312;28;20464;-73
2022/10/13 02:40:18;;;;;;;6.22;4.55;;;11.10;99.90;;;;;;5021492;28;20041;-73
2022/10/13 02:42:45;;;;;;;6.38;3.67;;;11.20;99.90;;;;;;5033866;28;20033;-74
2022/10/13 02:45:11;;;;;;;6.47;3.20;;;11.20;99.90;;;;;;5032624;28;20025;-73
2022/10/13 02:47:37;;;;;;;5.25;3.30;;;11.20;99.90;;;;;;5034426;28;20025;-73
2022/10/13 02:50:04;;;;;;;5.55;3.72;;;11.20;99.90;;;;;;5040294;28;20033;-73
2022/10/13 02:52:30;;;;;;;4.57;3.38;;;11.20;99.90;;;;;;5034190;28;20030;-73
2022/10/13 02:54:57;;;;;;;6.53;4.47;;;11.20;99.90;;;;;;5013871;28;20112;-73
2022/10/13 02:57:23;;;;;;;6.10;3.75;;;11.20;99.90;;;;;;5034973;28;20049;-73
2022/10/13 02:59:51;;;;;;;5.85;3.60;;;11.20;99.90;;;;;;5034534;28;20045;-73
2022/10/13 03:02:18;;;;;;;5.32;3.60;;;11.10;99.90;;;;;;5034648;28;20039;-74
2022/10/13 03:04:44;;;;;;;5.70;4.45;;;11.10;99.90;;;;;;5033957;28;20037;-73
2022/10/13 03:07:10;;;;;;;8.20;4.50;;;11.10;99.90;;;;;;5035998;28;20045;-73
2022/10/13 03:09:37;;;;;;;5.35;3.67;;;11.10;99.90;;;;;;5035010;28;20479;-73
2022/10/13 03:12:03;;;;;;;6.05;3.72;;;11.10;99.90;;;;;;5033680;28;20353;-73
2022/10/13 03:14:30;;;;;;;7.22;4.82;;;11.10;99.90;;;;;;5030660;28;20045;-73
2022/10/13 03:16:56;;;;;;;5.78;4.63;;;11.10;99.90;;;;;;5031284;28;20037;-73
2022/10/13 03:19:22;;;;;;;5.25;3.95;;;11.10;99.90;;;;;;5031278;28;20029;-73
2022/10/13 03:21:49;;;;;;;6.75;3.08;;;11.10;99.90;;;;;;5036343;28;20041;-73
2022/10/13 03:24:15;;;;;;;5.45;3.47;;;11.10;99.90;;;;;;5033265;28;20134;-73
2022/10/13 03:26:41;;;;;;;6.10;3.78;;;11.10;99.90;;;;;;5034893;28;20045;-73
2022/10/13 03:29:12;;;;;;;6.15;3.60;;;11.10;99.90;;;;;;5033226;28;20048;-73
2022/10/13 03:31:38;;;;;;;7.55;4.13;;;11.10;99.90;;;;;;5033408;28;20033;-73
2022/10/13 03:34:04;;;;;;;8.40;4.53;;;11.10;99.90;;;;;;5032538;28;20041;-74
2022/10/13 03:36:30;;;;;;;5.18;3.60;;;11.10;99.90;;;;;;5034675;28;20037;-74
2022/10/13 03:38:57;;;;;;;6.85;3.67;;;11.10;99.90;;;;;;5032084;28;20037;-73
2022/10/13 03:41:23;;;;;;;5.68;3.50;;;11.10;99.90;;;;;;5034474;28;20050;-73
2022/10/13 03:43:50;;;;;;;5.68;3.72;;;11.10;99.90;;;;;;5031837;28;20025;-73
2022/10/13 03:46:17;;;;;;;5.65;3.90;;;11.10;99.90;;;;;;5030974;28;20051;-73
2022/10/13 03:48:46;;;;;;;9.25;4.40;;;11.10;99.90;;;;;;5032710;28;20463;-73
2022/10/13 03:51:15;;;;;;;7.80;3.97;;;11.00;99.90;;;;;;5034842;28;20048;-73
2022/10/13 03:53:46;;;;;;;7.05;3.53;;;11.00;99.90;;;;;;5028601;28;20029;-73
2022/10/13 03:56:18;;;;;;;5.85;3.75;;;11.00;99.90;;;;;;5031911;28;20033;-71
2022/10/13 03:58:54;;;;;;;5.28;3.25;;;11.10;99.90;;;;;;5036179;28;20028;-72
2022/10/13 04:01:22;;;;;;;5.35;3.33;;;11.10;99.90;;;;;;5016473;28;20029;-72
2022/10/13 04:03:50;;;;;;;7.38;4.88;;;11.10;99.90;;;;;;5020791;28;20638;-72
2022/10/13 04:06:17;;;;;;;6.68;3.70;;;11.20;99.90;;;;;;5032626;28;20388;-72
2022/10/13 04:08:43;;;;;;;5.25;3.38;;;11.20;99.90;;;;;;5014835;28;20064;-72
2022/10/13 04:11:12;;;;;;;4.88;3.65;;;11.20;99.90;;;;;;5036151;28;20340;-72
2022/10/13 04:13:40;;;;;;;6.05;3.65;;;11.20;99.90;;;;;;5028238;28;20511;-72
2022/10/13 04:16:16;;;;;;;9.88;5.63;;;11.20;99.90;;;;;;5030826;28;20040;-73
2022/10/13 04:18:43;;;;;;;11.02;5.38;;;11.20;99.90;;;;;;5016006;28;20508;-73
2022/10/13 04:21:12;;;;;;;4.72;3.72;;;11.20;99.90;;;;;;5032618;28;20061;-72
2022/10/13 04:23:39;;;;;;;7.28;4.05;;;11.20;99.90;;;;;;5031593;28;20034;-72
2022/10/13 04:26:05;;;;;;;4.53;3.05;;;11.20;99.90;;;;;;5014499;28;20045;-73
2022/10/13 04:28:34;;;;;;;5.13;3.63;;;11.30;99.90;;;;;;5032866;28;20029;-73
2022/10/13 04:31:02;;;;;;;7.72;4.05;;;11.30;99.90;;;;;;5038662;28;20028;-72
2022/10/13 04:33:30;;;;;;;6.88;4.00;;;11.30;99.90;;;;;;5031630;28;20025;-72
2022/10/13 04:35:56;;;;;;;6.50;3.45;;;11.30;99.90;;;;;;5013079;28;20140;-73
2022/10/13 04:38:22;;;;;;;6.10;3.60;;;11.40;99.90;;;;;;5020795;28;20041;-72
2022/10/13 04:40:49;;;;;;;4.18;3.15;;;11.40;99.90;;;;;;5030328;28;20392;-73
2022/10/13 04:43:15;;;;;;;8.25;5.18;;;11.40;99.90;;;;;;5034035;28;20033;-72
2022/10/13 04:45:42;;;;;;;5.40;3.20;;;11.40;99.90;;;;;;5028440;28;20056;-72
2022/10/13 04:48:08;;;;;;;4.75;3.53;;;11.40;99.90;;;;;;5030177;28;20031;-72
2022/10/13 04:50:34;;;;;;;5.75;4.25;;;11.40;99.90;;;;;;5033703;28;20025;-73
2022/10/13 04:53:01;;;;;;;6.15;4.50;;;11.40;99.90;;;;;;5032177;28;20033;-73
2022/10/13 04:55:27;;;;;;;6.00;4.30;;;11.40;99.90;;;;;;5031441;28;20694;-72
2022/10/13 04:57:53;;;;;;;9.60;4.85;;;11.40;99.90;;;;;;5033620;28;20037;-73
2022/10/13 05:00:20;;;;;;;6.95;4.30;;;11.40;99.90;;;;;;5031453;28;20041;-74
2022/10/13 05:02:46;;;;;;;8.30;4.65;;;11.40;99.90;;;;;;5034698;28;20045;-72
2022/10/13 05:05:13;;;;;;;8.02;3.75;;;11.40;99.90;;;;;;5033118;28;20029;-72
2022/10/13 05:07:39;;;;;;;9.55;5.30;;;11.40;99.90;;;;;;5028409;28;20038;-72
2022/10/13 05:10:06;;;;;;;6.47;4.25;;;11.40;99.90;;;;;;5016172;28;20558;-72
2022/10/13 05:12:32;;;;;;;6.40;4.30;;;11.40;99.90;;;;;;5031973;28;20045;-72
2022/10/13 05:14:58;;;;;;;5.57;3.45;;;11.40;99.90;;;;;;5028934;28;20391;-72
2022/10/13 05:17:24;;;;;;;6.38;4.60;;;11.40;99.90;;;;;;5031569;28;20060;-72
2022/10/13 05:19:51;;;;;;;10.20;5.93;;;11.40;99.90;;;;;;5033416;28;20041;-72
2022/10/13 05:22:17;;;;;;;7.00;5.10;;;11.40;99.90;;;;;;5032792;28;20034;-73
2022/10/13 05:24:43;;;;;;;7.15;4.28;;;11.40;99.90;;;;;;5029565;28;20034;-72
2022/10/13 05:27:12;;;;;;;9.40;5.25;;;11.40;99.90;;;;;;5031164;28;20037;-73
2022/10/13 05:29:38;;;;;;;10.18;5.00;;;11.40;99.90;;;;;;5030811;28;20056;-74
2022/10/13 05:32:05;;;;;;;8.35;5.40;;;11.40;99.90;;;;;;5035042;28;20048;-74
2022/10/13 05:34:31;;;;;;;7.68;4.65;;;11.50;99.90;;;;;;5015161;28;20029;-73
2022/10/13 05:36:59;;;;;;;8.45;5.00;;;11.50;99.90;;;;;;5032161;28;20036;-73
2022/10/13 05:39:25;;;;;;;7.43;4.88;;;11.60;99.90;;;;;;5030304;28;20068;-73
2022/10/13 05:41:51;;;;;;;7.35;4.90;;;11.60;99.90;;;;;;5030553;28;20371;-73
2022/10/13 05:44:21;;;;;;;7.85;4.28;;;11.70;99.90;;;;;;5030166;28;20040;-73
2022/10/13 05:46:55;;;;;;;11.80;6.20;;;11.70;99.90;;;;;;5027668;28;20037;-73
2022/10/13 05:49:21;;;;;;;11.48;6.15;;;11.70;99.90;;;;;;5022781;28;20379;-74
2022/10/13 05:51:52;;;;;;;11.93;6.28;;;11.80;99.90;;;;;;5023888;28;20025;-73
2022/10/13 05:54:39;;;;;;;10.50;6.57;;;11.90;99.90;;;;;;5007323;28;20052;-73
2022/10/13 05:57:15;;;;;;;10.35;5.95;;;11.90;99.90;;;;;;5017985;28;20057;-73
2022/10/13 05:59:48;;;;;;;9.57;6.55;;;11.90;99.90;;;;;;5021260;28;20029;-72
2022/10/13 06:02:15;;;;;;;9.00;5.03;;;11.90;99.90;;;;;;5019422;28;20394;-71
2022/10/13 06:04:47;;;;;;;11.73;6.40;;;11.90;99.90;;;;;;5008331;28;20041;-71
2022/10/13 06:07:14;;;;;;;10.60;6.45;;;12.00;99.90;;;;;;5029080;28;20440;-71
2022/10/13 06:09:40;;;;;;;12.65;6.47;;;12.00;99.90;;;;;;5026225;28;20034;-72
2022/10/13 06:12:08;;;;;;;10.30;5.93;;;12.10;99.90;;;;;;5030080;28;20045;-73
2022/10/13 06:14:34;;;;;;;6.50;4.47;;;12.10;99.90;;;;;;5029328;28;20064;-73
2022/10/13 06:17:06;;;;;;;8.48;5.68;;;12.10;99.90;;;;;;5026991;28;20033;-72
2022/10/13 06:19:32;;;;;;;8.93;5.32;;;12.10;99.90;;;;;;5028034;28;20033;-72
2022/10/13 06:22:07;;;;;;;10.38;5.68;;;12.20;99.90;;;;;;5030673;28;20052;-71
2022/10/13 06:24:33;;;;;;;9.90;5.50;;;12.20;99.90;;;;;;5028249;28;20041;-72
2022/10/13 06:26:59;;;;;;;10.32;6.15;;;12.20;99.90;;;;;;5028727;28;20034;-72
2022/10/13 06:29:26;;;;;;;11.18;6.57;;;12.30;99.90;;;;;;5032722;28;20033;-73
2022/10/13 06:31:52;;;;;;;8.35;5.38;;;12.30;99.90;;;;;;5014939;28;20044;-72
2022/10/13 06:34:18;;;;;;;7.20;4.53;;;12.30;99.90;;;;;;5031571;28;20034;-73
2022/10/13 06:36:44;;;;;;;12.40;7.90;;;12.40;99.90;;;;;;5019430;28;20066;-72
2022/10/13 06:39:11;;;;;;;11.77;6.03;;;12.40;99.90;;;;;;5035973;28;20043;-72
2022/10/13 06:41:37;;;;;;;11.02;6.78;;;12.40;99.90;;;;;;5034813;28;20040;-72
2022/10/13 06:44:04;;;;;;;6.72;4.50;;;12.40;99.90;;;;;;5033628;28;20037;-72
2022/10/13 06:46:30;;;;;;;6.53;4.95;;;12.50;99.90;;;;;;5038170;28;20041;-72
2022/10/13 06:48:56;;;;;;;8.60;6.47;;;12.50;99.90;;;;;;5023052;28;20049;-72
2022/10/13 06:51:24;;;;;;;8.45;6.40;;;12.50;99.90;;;;;;5036874;28;20040;-72
2022/10/13 06:53:50;;;;;;;10.77;8.05;;;12.60;99.90;;;;;;5018147;28;20040;-72
2022/10/13 06:56:22;;;;;;;12.88;8.60;;;12.60;99.90;;;;;;5031871;28;20040;-73
2022/10/13 06:58:48;;;;;;;8.35;6.78;;;12.60;99.90;;;;;;5035283;28;20045;-72
2022/10/13 07:01:14;;;;;;;10.23;6.78;;;12.60;99.90;;;;;;5034528;28;20038;-72
2022/10/13 07:03:40;;;;;;;8.85;6.10;;;12.70;99.90;;;;;;5033330;28;20044;-72
2022/10/13 07:06:07;;;;;;;10.63;5.82;;;12.70;99.90;;;;;;5017553;28;20376;-72
2022/10/13 07:08:34;;;;;;;7.78;5.15;;;12.70;99.90;;;;;;5033788;28;20055;-72
2022/10/13 07:11:08;;;;;;;7.07;4.75;;;12.70;99.90;;;;;;5036154;28;20723;-73
2022/10/13 07:13:34;;;;;;;9.00;5.22;;;12.70;99.90;;;;;;5034953;28;20044;-72
2022/10/13 07:16:05;;;;;;;13.05;6.28;;;12.80;99.90;;;;;;5028933;28;20045;-73
2022/10/13 07:18:32;;;;;;;8.00;5.28;;;12.80;99.90;;;;;;5034621;28;20483;-73
2022/10/13 07:20:59;;;;;;;6.68;4.53;;;12.80;99.90;;;;;;5034868;28;20109;-72
2022/10/13 07:23:26;;;;;;;8.48;5.57;;;12.80;99.90;;;;;;5036217;28;20025;-72
2022/10/13 07:25:53;;;;;;;8.90;4.70;;;12.90;99.90;;;;;;5032469;28;20116;-73
2022/10/13 07:28:20;;;;;;;8.00;5.05;;;12.90;99.90;;;;;;5016879;28;20483;-72
2022/10/13 07:30:46;;;;;;;10.65;6.45;;;12.90;99.90;;;;;;5001468;28;20059;-73
2022/10/13 07:33:12;;;;;;;13.40;6.40;;;13.00;99.90;;;;;;5022637;28;20037;-72
2022/10/13 07:35:39;;;;;;;12.50;7.93;;;13.00;99.90;;;;;;5030433;28;20060;-73
2022/10/13 07:38:06;;;;;;;9.70;5.78;;;13.00;99.90;;;;;;5034516;28;20029;-72
2022/10/13 07:40:33;;;;;;;10.77;7.72;;;13.00;99.90;;;;;;5036595;28;20041;-73
2022/10/13 07:43:00;;;;;;;8.52;5.60;;;13.10;99.90;;;;;;5034712;28;20037;-72
2022/10/13 07:45:26;;;;;;;10.65;7.90;;;13.10;99.90;;;;;;5013330;28;20041;-73
2022/10/13 07:47:53;;;;;;;12.65;6.72;;;13.10;99.90;;;;;;5035302;28;20029;-72
2022/10/13 07:50:19;;;;;;;9.45;5.50;;;13.10;99.90;;;;;;5038123;28;20037;-74
2022/10/13 07:52:45;;;;;;;31.73;20.88;;;13.10;99.90;;;;;;5035268;28;20048;-72
2022/10/13 07:55:12;;;;;;;20.23;13.75;;;13.10;99.90;;;;;;5032849;28;20033;-73
2022/10/13 07:57:38;;;;;;;20.35;15.23;;;13.10;99.90;;;;;;5017336;28;20024;-72
2022/10/13 08:00:05;;;;;;;20.35;13.35;;;13.10;99.90;;;;;;5033386;28;20033;-72
2022/10/13 08:02:38;;;;;;;14.30;9.63;;;13.10;99.90;;;;;;5034711;28;20043;-72
2022/10/13 08:05:05;;;;;;;11.80;7.97;;;13.20;99.90;;;;;;5031575;28;20033;-72
2022/10/13 08:07:31;;;;;;;16.42;9.73;;;13.20;99.90;;;;;;5033210;28;20125;-72
2022/10/13 08:09:57;;;;;;;9.65;7.35;;;13.20;99.90;;;;;;5031152;28;20056;-72
2022/10/13 08:12:23;;;;;;;11.02;7.78;;;13.20;99.90;;;;;;5012803;28;20037;-72
2022/10/13 08:14:50;;;;;;;10.02;6.40;;;13.30;99.90;;;;;;5030371;28;20045;-72
2022/10/13 08:17:16;;;;;;;11.15;7.47;;;13.40;99.90;;;;;;5032285;28;20041;-72
2022/10/13 08:19:43;;;;;;;9.60;6.28;;;13.50;99.90;;;;;;5035043;28;20435;-72
2022/10/13 08:22:13;;;;;;;11.52;7.78;;;13.60;99.90;;;;;;5031311;28;20044;-72
2022/10/13 08:24:39;;;;;;;11.80;7.30;;;13.60;99.90;;;;;;5029440;28;20049;-73
2022/10/13 08:27:08;;;;;;;9.98;6.80;;;13.70;99.90;;;;;;5031285;28;20042;-72
2022/10/13 08:29:35;;;;;;;10.98;7.63;;;13.80;99.90;;;;;;5031472;28;20041;-72
2022/10/13 08:32:01;;;;;;;15.98;11.95;;;13.90;99.90;;;;;;5032757;28;20041;-72
2022/10/13 08:34:28;;;;;;;12.05;9.18;;;13.90;99.90;;;;;;5030503;28;20034;-72
2022/10/13 08:36:55;;;;;;;10.35;7.65;;;14.10;99.90;;;;;;5032277;28;20041;-72
2022/10/13 08:39:24;;;;;;;11.50;7.97;;;14.20;99.90;;;;;;5014066;28;20037;-72
2022/10/13 08:41:50;;;;;;;11.07;7.65;;;14.30;99.90;;;;;;5033314;28;20453;-72
2022/10/13 08:44:17;;;;;;;11.57;7.72;;;14.30;99.90;;;;;;5027221;28;20780;-72
2022/10/13 08:47:05;;;;;;;11.77;8.68;;;14.40;99.90;;;;;;5033981;28;20032;-72
2022/10/13 08:49:32;;;;;;;16.40;10.30;;;14.40;99.90;;;;;;5033441;28;20049;-73
2022/10/13 08:52:01;;;;;;;8.25;6.63;;;14.40;99.90;;;;;;5031166;28;20033;-72
2022/10/13 08:54:28;;;;;;;13.13;8.27;;;14.40;99.90;;;;;;5026071;28;20034;-72
2022/10/13 08:56:54;;;;;;;12.75;8.48;;;14.40;99.90;;;;;;5033207;28;20033;-71
2022/10/13 08:59:20;;;;;;;12.00;8.43;;;14.40;99.90;;;;;;5030797;28;20033;-72
2022/10/13 09:01:51;;;;;;;11.43;9.35;;;14.30;99.90;;;;;;5031750;28;20036;-72
2022/10/13 09:04:28;;;;;;;14.23;9.38;;;14.30;99.90;;;;;;5029208;28;20045;-71
2022/10/13 09:07:21;;;;;;;13.85;8.18;;;14.30;99.90;;;;;;5031138;28;20503;-73
2022/10/13 09:09:52;;;;;;;10.88;8.07;;;14.30;99.90;;;;;;5033150;28;20040;-73
2022/10/13 09:12:23;;;;;;;13.52;9.70;;;14.30;99.90;;;;;;5030214;28;20529;-72
2022/10/13 09:14:58;;;;;;;11.50;6.88;;;14.30;99.90;;;;;;5028487;28;20033;-73
2022/10/13 09:17:27;;;;;;;11.60;7.22;;;14.50;99.90;;;;;;5033163;28;20144;-72
2022/10/13 09:20:16;;;;;;;10.27;6.95;;;14.60;99.90;;;;;;5028664;28;20033;-72
2022/10/13 09:22:44;;;;;;;14.60;7.88;;;14.90;99.90;;;;;;5028420;28;20504;-73
2022/10/13 09:25:20;;;;;;;12.48;8.63;;;15.20;99.90;;;;;;5030909;28;20063;-73
2022/10/13 09:27:55;;;;;;;14.25;9.07;;;15.50;99.90;;;;;;5014826;28;20758;-72
2022/10/13 09:30:34;;;;;;;16.33;10.80;;;15.70;99.90;;;;;;5034895;28;20034;-72
2022/10/13 09:33:10;;;;;;;14.10;7.95;;;15.90;99.90;;;;;;5032394;28;20380;-73
2022/10/13 09:35:41;;;;;;;12.30;8.10;;;16.10;99.90;;;;;;5016127;28;20037;-72
2022/10/13 09:38:18;;;;;;;14.13;8.88;;;16.20;99.90;;;;;;5027223;28;20030;-73
2022/10/13 09:41:04;;;;;;;9.73;7.47;;;16.20;99.90;;;;;;5031206;28;20068;-73
2022/10/13 09:43:36;;;;;;;9.95;7.15;;;16.20;99.90;;;;;;5029205;28;20514;-73
2022/10/13 09:46:17;;;;;;;15.10;10.60;;;16.30;99.90;;;;;;5027106;28;20040;-73
2022/10/13 09:48:49;;;;;;;14.48;9.15;;;16.40;99.90;;;;;;5032023;28;20046;-73
2022/10/13 09:51:34;;;;;;;16.08;9.00;;;16.50;99.90;;;;;;5032559;28;20037;-73
2022/10/13 09:54:39;;;;;;;11.68;6.90;;;16.70;99.90;;;;;;5027094;28;20040;-73
2022/10/13 09:57:14;;;;;;;12.57;9.05;;;16.80;99.90;;;;;;5022586;28;20105;-73
2022/10/13 09:59:48;;;;;;;12.90;8.52;;;16.80;99.90;;;;;;5028129;28;20044;-73
2022/10/13 10:02:31;;;;;;;14.07;7.60;;;16.80;99.90;;;;;;5025910;28;20424;-72
2022/10/13 10:05:04;;;;;;;11.63;7.15;;;16.80;99.90;;;;;;5019260;28;20044;-72
2022/10/13 10:07:31;;;;;;;10.38;7.00;;;16.80;99.90;;;;;;5031851;28;20033;-73
2022/10/13 10:10:25;;;;;;;12.50;7.20;;;16.80;99.90;;;;;;5018956;28;20041;-72
2022/10/13 10:12:52;;;;;;;14.48;6.75;;;16.80;99.90;;;;;;5037353;28;20048;-72
2022/10/13 10:15:57;;;;;;;14.15;8.35;;;16.90;99.90;;;;;;5029226;28;20040;-72
2022/10/13 10:18:47;;;;;;;15.63;8.18;;;17.00;99.90;;;;;;5025396;28;20045;-72
2022/10/13 10:21:38;;;;;;;9.80;6.75;;;17.10;99.90;;;;;;5033785;28;20033;-73
2022/10/13 10:24:25;;;;;;;14.23;9.73;;;17.30;99.90;;;;;;5014427;28;20712;-73
2022/10/13 10:27:04;;;;;;;15.65;8.52;;;17.30;99.90;;;;;;5034947;28;20041;-73
2022/10/13 10:29:36;;;;;;;9.48;5.93;;;17.30;99.90;;;;;;5037137;28;20037;-74
2022/10/13 10:32:21;;;;;;;13.77;6.53;;;17.30;99.90;;;;;;5040980;28;20055;-73
2022/10/13 10:35:08;;;;;;;10.13;6.07;;;17.30;99.90;;;;;;5030956;28;20060;-73
2022/10/13 10:37:38;;;;;;;12.13;8.40;;;17.20;99.90;;;;;;5027834;28;20032;-73
2022/10/13 10:40:23;;;;;;;10.85;8.02;;;17.10;99.90;;;;;;5032045;28;20029;-73
2022/10/13 10:43:16;;;;;;;11.45;7.97;;;17.10;99.90;;;;;;5030537;28;20041;-73
2022/10/13 10:45:45;;;;;;;11.57;6.43;;;17.00;99.90;;;;;;4997832;28;20028;-74
2022/10/13 10:48:21;;;;;;;11.32;6.50;;;16.90;99.90;;;;;;5027396;28;20033;-74
2022/10/13 10:50:50;;;;;;;11.45;7.65;;;16.80;99.90;;;;;;5033818;28;20214;-73
2022/10/13 10:53:40;;;;;;;14.02;8.02;;;16.70;99.90;;;;;;5034358;28;20033;-73
2022/10/13 10:56:30;;;;;;;14.27;7.85;;;16.70;99.90;;;;;;5013066;28;20491;-74
2022/10/13 10:59:30;;;;;;;11.93;7.85;;;16.70;99.90;;;;;;5033961;28;20578;-74
2022/10/13 11:02:12;;;;;;;12.88;6.85;;;16.80;99.90;;;;;;5032027;28;20048;-72
2022/10/13 11:04:51;;;;;;;11.52;7.30;;;16.80;99.90;;;;;;5044662;28;20483;-73
2022/10/13 11:07:23;;;;;;;9.43;6.38;;;16.80;99.90;;;;;;5029199;28;20056;-72
2022/10/13 11:09:52;;;;;;;7.53;5.80;;;16.70;99.90;;;;;;5032498;28;20041;-72
2022/10/13 11:12:19;;;;;;;9.05;6.32;;;16.70;99.90;;;;;;5026146;28;20033;-72
2022/10/13 11:14:46;;;;;;;14.93;9.02;;;16.60;99.90;;;;;;5008929;28;20044;-72
2022/10/13 11:17:42;;;;;;;11.55;6.85;;;16.40;99.90;;;;;;5024955;28;20053;-72
2022/10/13 11:20:19;;;;;;;10.25;5.28;;;16.20;99.90;;;;;;5023951;28;20041;-77
2022/10/13 11:22:58;;;;;;;10.02;6.68;;;16.00;99.90;;;;;;5033149;28;20041;-74
2022/10/13 11:25:43;;;;;;;10.70;7.22;;;15.70;99.90;;;;;;5035117;28;20033;-75
2022/10/13 11:28:22;;;;;;;7.82;5.63;;;15.50;99.90;;;;;;5025461;28;20713;-75
2022/10/13 11:30:49;;;;;;;7.95;5.43;;;15.30;99.90;;;;;;5016090;28;20072;-75
2022/10/13 11:33:34;;;;;;;13.15;8.00;;;15.20;99.90;;;;;;5033955;28;20040;-75
2022/10/13 11:36:29;;;;;;;11.80;8.60;;;15.10;99.90;;;;;;5012706;28;20040;-75
2022/10/13 11:39:19;;;;;;;9.93;6.72;;;15.00;99.90;;;;;;5030926;28;20449;-75
2022/10/13 11:42:11;;;;;;;11.43;6.88;;;14.90;99.90;;;;;;5034142;28;20041;-75
2022/10/13 11:44:57;;;;;;;11.43;7.63;;;14.70;99.90;;;;;;5024221;28;20441;-75
2022/10/13 11:48:00;;;;;;;10.35;8.70;;;14.70;99.90;;;;;;5040663;28;20033;-76
2022/10/13 11:50:39;;;;;;;13.80;10.40;;;14.70;99.90;;;;;;5026078;28;20381;-75
2022/10/13 11:53:20;;;;;;;19.70;13.30;;;14.60;99.90;;;;;;5034743;28;20515;-75
2022/10/13 11:55:51;;;;;;;16.92;11.93;;;14.60;99.90;;;;;;5009968;28;20052;-74
2022/10/13 11:58:24;;;;;;;12.75;10.02;;;14.50;99.90;;;;;;5029022;28;20550;-75
2022/10/13 12:01:05;;;;;;;12.15;8.35;;;14.50;99.90;;;;;;5022625;28;20026;-74
2022/10/13 12:03:37;;;;;;;15.65;10.38;;;14.50;99.90;;;;;;5023463;28;20125;-74
2022/10/13 12:06:32;;;;;;;12.55;8.60;;;14.50;99.90;;;;;;5028148;28;20026;-74
2022/10/13 12:09:02;;;;;;;14.57;10.02;;;14.50;99.90;;;;;;5019871;28;20022;-75
2022/10/13 12:11:36;;;;;;;13.75;8.75;;;14.40;99.90;;;;;;5026656;28;20049;-73
2022/10/13 12:14:07;;;;;;;16.95;10.20;;;14.40;99.90;;;;;;5030684;28;20046;-73
2022/10/13 12:16:33;;;;;;;9.93;7.05;;;14.30;99.90;;;;;;5031845;28;20045;-73
2022/10/13 12:19:20;;;;;;;12.65;8.85;;;14.40;99.90;;;;;;5031723;28;20033;-73
2022/10/13 12:22:10;;;;;;;9.25;6.50;;;14.30;99.90;;;;;;4997281;28;20045;-74
2022/10/13 12:24:37;;;;;;;9.70;7.45;;;14.30;99.90;;;;;;5022932;28;20045;-73
2022/10/13 12:27:19;;;;;;;10.95;8.18;;;14.30;99.90;;;;;;5025612;28;20030;-73
2022/10/13 12:29:46;;;;;;;10.68;8.85;;;14.30;99.90;;;;;;5019139;28;20030;-73
2022/10/13 12:32:30;;;;;;;15.25;9.68;;;14.30;99.90;;;;;;5028536;28;20460;-74
2022/10/13 12:35:19;;;;;;;12.18;8.55;;;14.30;99.90;;;;;;5012072;28;20048;-74
2022/10/13 12:37:46;;;;;;;11.95;8.63;;;14.20;99.90;;;;;;5027863;28;20854;-74
2022/10/13 12:40:15;;;;;;;13.98;9.50;;;14.20;99.90;;;;;;5031105;28;20037;-73
2022/10/13 12:42:41;;;;;;;11.85;9.27;;;14.20;99.90;;;;;;5010826;28;20506;-74
2022/10/13 12:45:17;;;;;;;10.38;8.30;;;14.20;99.90;;;;;;5010223;28;20041;-74
2022/10/13 12:47:43;;;;;;;11.40;7.60;;;14.30;99.90;;;;;;5030575;28;20393;-74
2022/10/13 12:50:43;;;;;;;9.68;7.75;;;14.30;99.90;;;;;;5028862;28;20025;-74
2022/10/13 12:53:27;;;;;;;9.13;6.80;;;14.40;99.90;;;;;;5003391;28;20680;-74
2022/10/13 12:55:59;;;;;;;10.52;7.50;;;14.40;99.90;;;;;;5025612;28;20040;-74
2022/10/13 12:58:32;;;;;;;14.40;10.20;;;14.40;99.90;;;;;;5010718;28;20041;-74
2022/10/13 13:01:13;;;;;;;;;;;14.40;99.90;;;;;;5030097;28;20048;-74
2022/10/13 13:03:42;;;;;;;13.20;8.45;;;14.30;99.90;;;;;;5024983;28;19921;-75
2022/10/13 13:06:14;;;;;;;12.32;9.18;;;14.30;99.90;;;;;;5027860;28;20029;-74
2022/10/13 13:08:42;;;;;;;15.20;11.07;;;14.20;99.90;;;;;;5025263;28;20038;-75